createdAt,value
2022-10-31T00:00:30.093Z,10.05
2022-10-31T00:05:42.555Z,8.30
2022-10-31T00:10:46.510Z,8.35
2022-10-31T00:15:48.616Z,9.10
2022-10-31T00:21:00.728Z,8.25
2022-10-31T00:26:04.439Z,7.55
2022-10-31T00:31:08.960Z,7.00
2022-10-31T00:36:16.473Z,7.03
2022-10-31T00:41:19.458Z,7.32
2022-10-31T00:46:21.636Z,8.38
2022-10-31T00:51:25.240Z,7.15
2022-10-31T00:56:27.371Z,7.00
2022-10-31T01:01:29.570Z,7.22
2022-10-31T01:06:33.458Z,6.65
2022-10-31T01:11:35.582Z,8.05
2022-10-31T01:16:37.892Z,6.88
2022-10-31T01:21:42.080Z,7.18
2022-10-31T01:26:44.295Z,6.78
2022-10-31T01:31:46.663Z,5.75
2022-10-31T01:36:50.217Z,6.07
2022-10-31T01:41:54.690Z,8.65
2022-10-31T01:46:59.931Z,7.15
2022-10-31T01:52:07.466Z,6.78
2022-10-31T01:57:13.912Z,7.15
2022-10-31T02:02:18.196Z,7.50
2022-10-31T02:07:27.775Z,7.95
2022-10-31T02:12:31.471Z,8.50
2022-10-31T02:17:34.872Z,7.78
2022-10-31T02:22:50.287Z,7.60
2022-10-31T02:28:22.822Z,7.85
2022-10-31T02:33:37.862Z,7.28
2022-10-31T02:38:50.726Z,6.43
2022-10-31T02:44:02.010Z,6.43
2022-10-31T02:49:13.378Z,5.90
2022-10-31T02:54:24.747Z,7.70
2022-10-31T02:59:27.846Z,6.53
2022-10-31T03:05:01.210Z,7.38
2022-10-31T03:10:12.266Z,8.55
2022-10-31T03:15:22.955Z,7.07
2022-10-31T03:20:32.394Z,7.95
2022-10-31T03:25:37.641Z,8.25
2022-10-31T03:30:43.987Z,7.35
2022-10-31T03:35:52.067Z,8.15
2022-10-31T03:40:57.051Z,9.05
2022-10-31T03:46:00.123Z,8.68
2022-10-31T03:51:10.779Z,8.77
2022-10-31T03:56:20.331Z,12.68
2022-10-31T04:01:23.467Z,13.32
2022-10-31T04:06:27.973Z,5.25
2022-10-31T04:11:33.219Z,5.47
2022-10-31T04:16:35.467Z,5.65
2022-10-31T04:21:39.042Z,8.68
2022-10-31T04:26:41.318Z,10.25
2022-10-31T04:31:43.471Z,7.68
2022-10-31T04:36:47.155Z,6.90
2022-10-31T04:41:49.302Z,9.10
2022-10-31T04:46:51.511Z,10.35
2022-10-31T04:51:55.211Z,7.32
2022-10-31T04:56:57.323Z,5.75
2022-10-31T05:01:59.696Z,4.93
2022-10-31T05:07:03.813Z,4.63
2022-10-31T05:12:06.147Z,4.85
2022-10-31T05:17:08.336Z,5.13
2022-10-31T05:22:11.950Z,4.80
2022-10-31T05:27:14.131Z,4.70
2022-10-31T05:32:16.254Z,4.80
2022-10-31T05:37:19.907Z,5.05
2022-10-31T05:42:22.135Z,4.63
2022-10-31T05:47:24.629Z,5.03
2022-10-31T05:52:28.225Z,5.32
2022-10-31T05:57:34.518Z,8.40
2022-10-31T06:02:36.760Z,6.30
2022-10-31T06:07:40.878Z,5.72
2022-10-31T06:12:43.125Z,5.35
2022-10-31T06:17:45.334Z,4.10
2022-10-31T06:22:48.886Z,5.00
2022-10-31T06:27:51.071Z,4.50
2022-10-31T06:32:53.306Z,5.20
2022-10-31T06:37:57.495Z,6.32
2022-10-31T06:43:01.255Z,5.20
2022-10-31T06:48:16.518Z,4.45
2022-10-31T06:53:20.613Z,5.05
2022-10-31T06:58:22.849Z,4.75
2022-10-31T07:03:24.985Z,9.23
2022-10-31T07:08:28.721Z,6.55
2022-10-31T07:13:30.921Z,6.10
2022-10-31T07:18:33.394Z,7.60
2022-10-31T07:23:37.004Z,7.53
2022-10-31T07:28:40.227Z,8.95
2022-10-31T07:33:42.470Z,6.55
2022-10-31T07:38:46.236Z,7.78
2022-10-31T07:43:48.630Z,7.88
2022-10-31T07:48:50.879Z,7.97
2022-10-31T07:53:54.483Z,9.25
2022-10-31T07:58:58.756Z,9.75
2022-10-31T08:04:04.174Z,7.45
2022-10-31T08:09:07.825Z,8.15
2022-10-31T08:14:10.032Z,8.27
2022-10-31T08:19:12.315Z,7.60
2022-10-31T08:24:15.917Z,7.93
2022-10-31T08:29:18.138Z,7.75
2022-10-31T08:34:20.342Z,7.63
2022-10-31T08:39:24.017Z,8.10
2022-10-31T08:44:26.167Z,8.27
2022-10-31T08:49:28.423Z,7.25
2022-10-31T08:54:31.989Z,8.80
2022-10-31T08:59:34.349Z,8.90
2022-10-31T09:04:36.542Z,8.23
2022-10-31T09:09:40.222Z,9.93
2022-10-31T09:14:42.389Z,10.13
2022-10-31T09:19:44.683Z,10.48
2022-10-31T09:24:48.374Z,9.15
2022-10-31T09:29:50.612Z,9.30
2022-10-31T09:34:52.814Z,9.18
2022-10-31T09:39:56.513Z,8.80
2022-10-31T09:45:05.455Z,9.45
2022-10-31T09:50:20.791Z,8.75
2022-10-31T09:55:32.400Z,8.55
2022-10-31T10:00:35.526Z,8.02
2022-10-31T10:05:42.532Z,8.20
2022-10-31T10:10:51.643Z,7.95
2022-10-31T10:16:10.065Z,7.88
2022-10-31T10:21:22.929Z,6.85
2022-10-31T10:26:36.304Z,6.82
2022-10-31T10:31:42.480Z,7.32
2022-10-31T10:36:48.250Z,7.80
2022-10-31T10:41:52.706Z,8.18
2022-10-31T10:46:59.719Z,7.45
2022-10-31T10:57:48.188Z,7.07
2022-10-31T11:02:50.942Z,6.50
2022-10-31T11:07:53.214Z,6.05
2022-10-31T11:13:09.576Z,5.68
2022-10-31T11:23:33.463Z,5.40
2022-10-31T11:28:47.848Z,5.55
2022-10-31T11:34:00.796Z,4.13
2022-10-31T11:39:18.014Z,4.30
2022-10-31T11:44:29.971Z,4.50
2022-10-31T11:49:37.273Z,3.47
2022-10-31T11:54:46.326Z,3.50
2022-10-31T11:59:54.722Z,3.00
2022-10-31T12:05:06.021Z,4.53
2022-10-31T12:10:12.969Z,3.63
2022-10-31T12:15:32.083Z,3.65
2022-10-31T12:20:50.684Z,4.82
2022-10-31T12:26:09.931Z,5.07
2022-10-31T12:31:34.775Z,4.75
2022-10-31T12:36:52.016Z,4.88
2022-10-31T12:42:05.658Z,5.30
2022-10-31T12:47:37.418Z,6.10
2022-10-31T12:52:51.789Z,4.55
2022-10-31T12:58:00.031Z,4.88
2022-10-31T13:03:25.625Z,7.43
2022-10-31T13:08:43.454Z,5.40
2022-10-31T13:13:59.077Z,4.93
2022-10-31T13:24:43.615Z,5.95
2022-10-31T13:30:00.773Z,6.27
2022-10-31T13:40:20.299Z,7.10
2022-10-31T13:45:25.233Z,7.70
2022-10-31T13:50:29.599Z,7.10
2022-10-31T13:55:42.178Z,6.88
2022-10-31T14:01:00.113Z,7.05
2022-10-31T14:06:13.211Z,7.00
2022-10-31T14:11:34.551Z,6.25
2022-10-31T14:16:52.044Z,6.13
2022-10-31T14:27:03.312Z,5.28
2022-10-31T14:32:22.465Z,4.85
2022-10-31T14:37:40.583Z,4.10
2022-10-31T14:43:05.837Z,3.60
2022-10-31T14:48:24.163Z,3.40
2022-10-31T14:53:30.256Z,2.92
2022-10-31T14:58:39.652Z,3.40
2022-10-31T15:04:03.603Z,2.97
2022-10-31T15:09:23.035Z,4.28
2022-10-31T15:14:29.017Z,4.43
2022-10-31T15:19:34.404Z,6.22
2022-10-31T15:24:39.266Z,7.00
2022-10-31T15:29:51.591Z,7.53
2022-10-31T15:34:55.183Z,9.85
2022-10-31T15:40:07.159Z,11.15
2022-10-31T15:45:21.704Z,12.30
2022-10-31T15:50:31.260Z,13.40
2022-10-31T15:55:40.543Z,15.77
2022-10-31T16:00:44.727Z,16.95
2022-10-31T16:05:50.076Z,16.45
2022-10-31T16:10:55.080Z,16.30
2022-10-31T16:16:33.647Z,18.25
2022-10-31T16:21:26.756Z,21.75
2022-10-31T16:26:29.367Z,17.20
2022-10-31T16:31:38.993Z,21.40
2022-10-31T16:36:41.430Z,21.77
2022-10-31T16:41:45.691Z,24.67
2022-10-31T16:46:49.352Z,22.35
2022-10-31T16:51:51.651Z,23.63
2022-10-31T16:56:53.916Z,24.23
2022-10-31T17:01:57.877Z,20.25
2022-10-31T17:07:00.458Z,19.30
2022-10-31T17:12:02.682Z,21.80
2022-10-31T17:17:06.370Z,19.15
2022-10-31T17:22:11.568Z,20.63
2022-10-31T17:27:13.800Z,20.65
2022-10-31T17:32:17.455Z,21.50
2022-10-31T17:37:19.622Z,19.75
2022-10-31T17:42:22.186Z,19.08
2022-10-31T17:47:25.875Z,20.42
2022-10-31T17:52:28.280Z,17.23
2022-10-31T17:57:34.645Z,19.73
2022-10-31T18:02:42.648Z,18.83
2022-10-31T18:07:52.459Z,19.50
2022-10-31T18:12:58.451Z,16.70
2022-10-31T18:18:03.620Z,23.23
2022-10-31T18:23:06.645Z,18.65
2022-10-31T18:28:09.170Z,18.30
2022-10-31T18:33:12.794Z,17.90
2022-10-31T18:38:15.063Z,18.20
2022-10-31T18:43:17.427Z,16.13
2022-10-31T18:48:21.477Z,18.25
2022-10-31T18:53:24.004Z,17.30
2022-10-31T18:58:26.173Z,15.77
2022-10-31T19:03:32.570Z,15.52
2022-10-31T19:08:35.296Z,15.07
2022-10-31T19:13:39.067Z,15.10
2022-10-31T19:18:43.897Z,16.95
2022-10-31T19:23:46.709Z,14.15
2022-10-31T19:28:49.107Z,14.80
2022-10-31T19:33:53.202Z,14.52
2022-10-31T19:38:55.524Z,14.00
2022-10-31T19:44:00.622Z,14.73
2022-10-31T19:49:04.488Z,14.63
2022-10-31T19:54:07.757Z,11.75
2022-10-31T19:59:10.589Z,13.10
2022-10-31T20:04:14.570Z,13.43
2022-10-31T20:09:17.044Z,13.20
2022-10-31T20:14:19.434Z,12.98
2022-10-31T20:19:23.638Z,11.75
2022-10-31T20:24:25.833Z,11.55
2022-10-31T20:29:28.078Z,12.75
2022-10-31T20:34:31.993Z,12.80
2022-10-31T20:39:34.438Z,13.45
2022-10-31T20:44:36.682Z,12.50
2022-10-31T20:49:40.473Z,13.20
2022-10-31T20:54:42.739Z,13.40
2022-10-31T20:59:45.027Z,13.55
2022-10-31T21:04:49.038Z,12.60
2022-10-31T21:09:51.348Z,12.45
2022-10-31T21:14:53.621Z,11.73
2022-10-31T21:19:57.556Z,10.10
2022-10-31T21:25:00.024Z,12.38
2022-10-31T21:30:02.313Z,12.23
2022-10-31T21:35:06.574Z,12.35
2022-10-31T21:40:09.830Z,13.88
2022-10-31T21:45:12.560Z,12.80
2022-10-31T21:50:20.033Z,13.63
2022-10-31T21:55:22.355Z,13.68
2022-10-31T22:00:24.445Z,13.57
2022-10-31T22:05:28.065Z,11.85
2022-10-31T22:10:30.396Z,14.07
2022-10-31T22:15:32.540Z,13.73
2022-10-31T22:20:36.144Z,10.85
2022-10-31T22:25:38.277Z,13.45
2022-10-31T22:30:40.426Z,12.45
2022-10-31T22:35:44.005Z,12.75
2022-10-31T22:40:46.238Z,12.00
2022-10-31T22:45:54.587Z,12.55
2022-10-31T22:51:05.427Z,14.25
2022-10-31T22:56:10.329Z,14.60
2022-10-31T23:01:14.261Z,13.80
2022-10-31T23:06:19.633Z,13.77
2022-10-31T23:11:23.621Z,12.90
2022-10-31T23:16:25.790Z,12.18
2022-10-31T23:21:29.351Z,11.55
2022-10-31T23:26:31.519Z,13.93
2022-10-31T23:31:33.645Z,13.23
2022-10-31T23:36:37.340Z,14.18
2022-10-31T23:41:39.557Z,13.55
2022-10-31T23:46:41.965Z,14.18
2022-10-31T23:51:45.576Z,15.38
2022-10-31T23:56:48.087Z,15.25
